sensor_id;sensor_type;location;lat;lon;timestamp;P1;durP1;ratioP1;P2;durP2;ratioP2
12218;SDS011;6172;42.646;23.344;2023-06-01T00:00:55;8.87;;;6.53;;
12218;SDS011;6172;42.646;23.344;2023-06-01T00:03:22;8.20;;;6.27;;
12218;SDS011;6172;42.646;23.344;2023-06-01T00:05:50;10.30;;;7.00;;
12218;SDS011;6172;42.646;23.344;2023-06-01T00:08:18;10.40;;;6.93;;
12218;SDS011;6172;42.646;23.344;2023-06-01T00:10:47;9.03;;;7.77;;
12218;SDS011;6172;42.646;23.344;2023-06-01T00:13:14;10.87;;;7.97;;
12218;SDS011;6172;42.646;23.344;2023-06-01T00:15:41;10.07;;;8.03;;
12218;SDS011;6172;42.646;23.344;2023-06-01T00:18:08;9.43;;;7.87;;
12218;SDS011;6172;42.646;23.344;2023-06-01T00:20:38;11.20;;;7.87;;
12218;SDS011;6172;42.646;23.344;2023-06-01T00:23:05;9.37;;;7.83;;
12218;SDS011;6172;42.646;23.344;2023-06-01T00:25:35;12.93;;;8.67;;
12218;SDS011;6172;42.646;23.344;2023-06-01T00:28:02;9.63;;;8.07;;
12218;SDS011;6172;42.646;23.344;2023-06-01T00:30:29;10.30;;;8.07;;
12218;SDS011;6172;42.646;23.344;2023-06-01T00:32:56;11.03;;;8.40;;
12218;SDS011;6172;42.646;23.344;2023-06-01T00:35:23;11.03;;;8.13;;
12218;SDS011;6172;42.646;23.344;2023-06-01T00:37:50;14.97;;;8.83;;
12218;SDS011;6172;42.646;23.344;2023-06-01T00:40:16;10.67;;;8.37;;
12218;SDS011;6172;42.646;23.344;2023-06-01T00:42:45;12.03;;;8.93;;
12218;SDS011;6172;42.646;23.344;2023-06-01T00:45:11;11.60;;;8.57;;
12218;SDS011;6172;42.646;23.344;2023-06-01T00:47:39;11.17;;;8.50;;
12218;SDS011;6172;42.646;23.344;2023-06-01T00:50:08;14.17;;;7.83;;
12218;SDS011;6172;42.646;23.344;2023-06-01T00:52:36;12.30;;;9.20;;
12218;SDS011;6172;42.646;23.344;2023-06-01T00:55:05;9.57;;;7.60;;
12218;SDS011;6172;42.646;23.344;2023-06-01T00:57:32;11.70;;;7.97;;
12218;SDS011;6172;42.646;23.344;2023-06-01T01:00:01;12.00;;;8.07;;
12218;SDS011;6172;42.646;23.344;2023-06-01T01:02:35;9.93;;;8.03;;
12218;SDS011;6172;42.646;23.344;2023-06-01T01:05:04;9.43;;;8.30;;
12218;SDS011;6172;42.646;23.344;2023-06-01T01:07:35;10.57;;;8.00;;
12218;SDS011;6172;42.646;23.344;2023-06-01T01:10:10;10.77;;;8.17;;
12218;SDS011;6172;42.646;23.344;2023-06-01T01:12:47;12.27;;;8.07;;
12218;SDS011;6172;42.646;23.344;2023-06-01T01:15:23;12.50;;;7.93;;
12218;SDS011;6172;42.646;23.344;2023-06-01T01:17:57;9.10;;;7.93;;
12218;SDS011;6172;42.646;23.344;2023-06-01T01:20:29;15.00;;;8.43;;
12218;SDS011;6172;42.646;23.344;2023-06-01T01:23:14;12.27;;;7.97;;
12218;SDS011;6172;42.646;23.344;2023-06-01T01:25:59;9.93;;;7.50;;
12218;SDS011;6172;42.646;23.344;2023-06-01T01:28:51;11.57;;;8.07;;
12218;SDS011;6172;42.646;23.344;2023-06-01T01:31:22;11.63;;;7.47;;
12218;SDS011;6172;42.646;23.344;2023-06-01T01:33:50;12.10;;;7.90;;
12218;SDS011;6172;42.646;23.344;2023-06-01T01:36:19;10.03;;;7.77;;
12218;SDS011;6172;42.646;23.344;2023-06-01T01:38:46;10.57;;;8.07;;
12218;SDS011;6172;42.646;23.344;2023-06-01T01:41:14;9.93;;;7.93;;
12218;SDS011;6172;42.646;23.344;2023-06-01T01:43:43;11.17;;;7.60;;
12218;SDS011;6172;42.646;23.344;2023-06-01T01:46:13;12.50;;;8.13;;
12218;SDS011;6172;42.646;23.344;2023-06-01T01:48:50;9.80;;;7.17;;
12218;SDS011;6172;42.646;23.344;2023-06-01T01:51:26;10.00;;;7.47;;
12218;SDS011;6172;42.646;23.344;2023-06-01T01:53:58;9.10;;;7.37;;
12218;SDS011;6172;42.646;23.344;2023-06-01T01:56:25;10.73;;;7.60;;
12218;SDS011;6172;42.646;23.344;2023-06-01T01:58:54;9.80;;;7.47;;
12218;SDS011;6172;42.646;23.344;2023-06-01T02:01:21;10.83;;;7.40;;
12218;SDS011;6172;42.646;23.344;2023-06-01T02:03:57;13.43;;;7.80;;
12218;SDS011;6172;42.646;23.344;2023-06-01T02:06:25;12.73;;;8.07;;
12218;SDS011;6172;42.646;23.344;2023-06-01T02:08:52;11.63;;;8.00;;
12218;SDS011;6172;42.646;23.344;2023-06-01T02:11:19;10.30;;;7.97;;
12218;SDS011;6172;42.646;23.344;2023-06-01T02:13:46;10.90;;;8.20;;
12218;SDS011;6172;42.646;23.344;2023-06-01T02:16:14;9.43;;;7.40;;
12218;SDS011;6172;42.646;23.344;2023-06-01T02:18:42;14.70;;;8.03;;
12218;SDS011;6172;42.646;23.344;2023-06-01T02:21:11;10.67;;;7.43;;
12218;SDS011;6172;42.646;23.344;2023-06-01T02:23:38;8.63;;;7.73;;
12218;SDS011;6172;42.646;23.344;2023-06-01T02:26:05;12.73;;;7.17;;
12218;SDS011;6172;42.646;23.344;2023-06-01T02:28:32;10.10;;;7.60;;
12218;SDS011;6172;42.646;23.344;2023-06-01T02:30:59;11.37;;;8.37;;
12218;SDS011;6172;42.646;23.344;2023-06-01T02:33:27;10.63;;;7.67;;
12218;SDS011;6172;42.646;23.344;2023-06-01T02:35:54;9.97;;;8.50;;
12218;SDS011;6172;42.646;23.344;2023-06-01T02:38:21;15.33;;;8.43;;
12218;SDS011;6172;42.646;23.344;2023-06-01T02:40:48;14.33;;;8.30;;
12218;SDS011;6172;42.646;23.344;2023-06-01T02:43:15;14.93;;;8.10;;
12218;SDS011;6172;42.646;23.344;2023-06-01T02:45:41;12.27;;;8.47;;
12218;SDS011;6172;42.646;23.344;2023-06-01T02:48:08;10.87;;;8.00;;
12218;SDS011;6172;42.646;23.344;2023-06-01T02:50:37;14.70;;;8.90;;
12218;SDS011;6172;42.646;23.344;2023-06-01T02:53:04;16.73;;;8.83;;
12218;SDS011;6172;42.646;23.344;2023-06-01T02:55:31;14.17;;;8.87;;
12218;SDS011;6172;42.646;23.344;2023-06-01T02:57:58;15.70;;;9.70;;
12218;SDS011;6172;42.646;23.344;2023-06-01T03:00:25;13.30;;;8.43;;
12218;SDS011;6172;42.646;23.344;2023-06-01T03:02:52;16.33;;;10.60;;
12218;SDS011;6172;42.646;23.344;2023-06-01T03:05:19;14.63;;;10.53;;
12218;SDS011;6172;42.646;23.344;2023-06-01T03:07:47;16.90;;;11.20;;
12218;SDS011;6172;42.646;23.344;2023-06-01T03:10:15;17.50;;;13.13;;
12218;SDS011;6172;42.646;23.344;2023-06-01T03:12:41;18.03;;;12.90;;
12218;SDS011;6172;42.646;23.344;2023-06-01T03:15:09;14.00;;;10.53;;
12218;SDS011;6172;42.646;23.344;2023-06-01T03:17:36;16.83;;;10.87;;
12218;SDS011;6172;42.646;23.344;2023-06-01T03:20:03;18.37;;;11.87;;
12218;SDS011;6172;42.646;23.344;2023-06-01T03:22:39;24.87;;;12.57;;
12218;SDS011;6172;42.646;23.344;2023-06-01T03:25:09;16.37;;;11.60;;
12218;SDS011;6172;42.646;23.344;2023-06-01T03:27:37;16.30;;;12.30;;
12218;SDS011;6172;42.646;23.344;2023-06-01T03:32:50;20.63;;;12.03;;
12218;SDS011;6172;42.646;23.344;2023-06-01T03:35:17;17.10;;;12.37;;
12218;SDS011;6172;42.646;23.344;2023-06-01T03:37:45;16.10;;;11.43;;
12218;SDS011;6172;42.646;23.344;2023-06-01T03:40:13;19.83;;;12.37;;
12218;SDS011;6172;42.646;23.344;2023-06-01T03:42:40;19.23;;;12.20;;
12218;SDS011;6172;42.646;23.344;2023-06-01T03:45:09;18.50;;;11.93;;
12218;SDS011;6172;42.646;23.344;2023-06-01T03:47:37;16.33;;;11.17;;
12218;SDS011;6172;42.646;23.344;2023-06-01T03:50:06;16.20;;;10.63;;
12218;SDS011;6172;42.646;23.344;2023-06-01T03:52:34;11.97;;;8.63;;
12218;SDS011;6172;42.646;23.344;2023-06-01T03:55:02;12.33;;;7.97;;
12218;SDS011;6172;42.646;23.344;2023-06-01T03:57:34;12.80;;;8.03;;
12218;SDS011;6172;42.646;23.344;2023-06-01T04:00:01;11.13;;;7.80;;
12218;SDS011;6172;42.646;23.344;2023-06-01T04:02:44;11.83;;;8.60;;
12218;SDS011;6172;42.646;23.344;2023-06-01T04:05:13;12.17;;;8.80;;
12218;SDS011;6172;42.646;23.344;2023-06-01T04:07:43;11.97;;;8.70;;
12218;SDS011;6172;42.646;23.344;2023-06-01T04:10:11;13.40;;;9.23;;
12218;SDS011;6172;42.646;23.344;2023-06-01T04:12:41;13.17;;;10.30;;
12218;SDS011;6172;42.646;23.344;2023-06-01T04:15:09;16.00;;;10.47;;
12218;SDS011;6172;42.646;23.344;2023-06-01T04:17:37;13.07;;;10.57;;
12218;SDS011;6172;42.646;23.344;2023-06-01T04:20:05;12.23;;;10.50;;
12218;SDS011;6172;42.646;23.344;2023-06-01T04:22:36;12.67;;;11.00;;
12218;SDS011;6172;42.646;23.344;2023-06-01T04:25:04;12.37;;;11.00;;
12218;SDS011;6172;42.646;23.344;2023-06-01T04:27:32;15.03;;;10.83;;
12218;SDS011;6172;42.646;23.344;2023-06-01T04:30:03;16.27;;;10.93;;
12218;SDS011;6172;42.646;23.344;2023-06-01T04:32:33;11.00;;;8.17;;
12218;SDS011;6172;42.646;23.344;2023-06-01T04:35:00;11.57;;;7.33;;
12218;SDS011;6172;42.646;23.344;2023-06-01T04:37:31;11.20;;;6.27;;
12218;SDS011;6172;42.646;23.344;2023-06-01T04:39:59;11.37;;;6.23;;
12218;SDS011;6172;42.646;23.344;2023-06-01T04:42:26;8.27;;;6.70;;
12218;SDS011;6172;42.646;23.344;2023-06-01T04:44:54;8.47;;;5.87;;
12218;SDS011;6172;42.646;23.344;2023-06-01T04:47:25;7.77;;;5.70;;
12218;SDS011;6172;42.646;23.344;2023-06-01T04:49:53;9.27;;;5.97;;
12218;SDS011;6172;42.646;23.344;2023-06-01T04:52:21;9.10;;;5.60;;
12218;SDS011;6172;42.646;23.344;2023-06-01T04:54:48;8.30;;;5.97;;
12218;SDS011;6172;42.646;23.344;2023-06-01T04:57:15;9.20;;;6.53;;
12218;SDS011;6172;42.646;23.344;2023-06-01T04:59:42;7.47;;;6.43;;
12218;SDS011;6172;42.646;23.344;2023-06-01T05:02:08;7.40;;;5.90;;
12218;SDS011;6172;42.646;23.344;2023-06-01T05:04:37;8.90;;;6.07;;
12218;SDS011;6172;42.646;23.344;2023-06-01T05:07:04;6.37;;;5.50;;
12218;SDS011;6172;42.646;23.344;2023-06-01T05:09:31;8.93;;;6.57;;
12218;SDS011;6172;42.646;23.344;2023-06-01T05:11:58;9.17;;;6.40;;
12218;SDS011;6172;42.646;23.344;2023-06-01T05:14:25;8.87;;;5.87;;
12218;SDS011;6172;42.646;23.344;2023-06-01T05:16:52;8.63;;;6.50;;
12218;SDS011;6172;42.646;23.344;2023-06-01T05:19:19;8.33;;;6.20;;
12218;SDS011;6172;42.646;23.344;2023-06-01T05:21:47;10.97;;;7.27;;
12218;SDS011;6172;42.646;23.344;2023-06-01T05:24:15;8.83;;;6.27;;
12218;SDS011;6172;42.646;23.344;2023-06-01T05:26:41;11.73;;;6.87;;
12218;SDS011;6172;42.646;23.344;2023-06-01T05:29:08;12.93;;;7.37;;
12218;SDS011;6172;42.646;23.344;2023-06-01T05:31:35;10.90;;;7.20;;
12218;SDS011;6172;42.646;23.344;2023-06-01T05:34:03;8.53;;;6.90;;
12218;SDS011;6172;42.646;23.344;2023-06-01T05:36:30;11.33;;;7.57;;
12218;SDS011;6172;42.646;23.344;2023-06-01T05:38:59;17.10;;;7.97;;
12218;SDS011;6172;42.646;23.344;2023-06-01T05:41:26;16.33;;;8.67;;
12218;SDS011;6172;42.646;23.344;2023-06-01T05:43:53;11.40;;;7.60;;
12218;SDS011;6172;42.646;23.344;2023-06-01T05:46:20;13.80;;;7.93;;
12218;SDS011;6172;42.646;23.344;2023-06-01T05:48:49;12.00;;;8.70;;
12218;SDS011;6172;42.646;23.344;2023-06-01T05:51:16;14.33;;;9.90;;
12218;SDS011;6172;42.646;23.344;2023-06-01T05:53:43;16.03;;;10.03;;
12218;SDS011;6172;42.646;23.344;2023-06-01T05:56:12;15.55;;;9.85;;
12218;SDS011;6172;42.646;23.344;2023-06-01T05:58:39;12.20;;;9.98;;
12218;SDS011;6172;42.646;23.344;2023-06-01T06:01:05;14.05;;;10.50;;
12218;SDS011;6172;42.646;23.344;2023-06-01T06:03:32;15.40;;;10.75;;
12218;SDS011;6172;42.646;23.344;2023-06-01T06:06:00;14.15;;;10.82;;
12218;SDS011;6172;42.646;23.344;2023-06-01T06:08:27;16.80;;;11.70;;
12218;SDS011;6172;42.646;23.344;2023-06-01T06:10:54;15.77;;;11.40;;
12218;SDS011;6172;42.646;23.344;2023-06-01T06:13:22;13.20;;;11.15;;
12218;SDS011;6172;42.646;23.344;2023-06-01T06:15:49;12.50;;;10.40;;
12218;SDS011;6172;42.646;23.344;2023-06-01T06:18:16;12.98;;;10.57;;
12218;SDS011;6172;42.646;23.344;2023-06-01T06:20:44;15.98;;;11.00;;
12218;SDS011;6172;42.646;23.344;2023-06-01T06:23:11;14.30;;;10.63;;
12218;SDS011;6172;42.646;23.344;2023-06-01T06:25:38;14.65;;;10.60;;
12218;SDS011;6172;42.646;23.344;2023-06-01T06:28:07;12.07;;;9.75;;
12218;SDS011;6172;42.646;23.344;2023-06-01T06:30:35;11.10;;;9.93;;
12218;SDS011;6172;42.646;23.344;2023-06-01T06:33:04;13.65;;;9.38;;
12218;SDS011;6172;42.646;23.344;2023-06-01T06:35:31;13.27;;;9.30;;
12218;SDS011;6172;42.646;23.344;2023-06-01T06:37:58;14.68;;;9.98;;
12218;SDS011;6172;42.646;23.344;2023-06-01T06:40:25;14.18;;;10.60;;
12218;SDS011;6172;42.646;23.344;2023-06-01T06:42:52;12.30;;;10.57;;
12218;SDS011;6172;42.646;23.344;2023-06-01T06:45:20;14.18;;;11.55;;
12218;SDS011;6172;42.646;23.344;2023-06-01T06:47:48;17.98;;;11.52;;
12218;SDS011;6172;42.646;23.344;2023-06-01T06:50:15;16.02;;;10.57;;
12218;SDS011;6172;42.646;23.344;2023-06-01T06:52:42;23.70;;;11.90;;
12218;SDS011;6172;42.646;23.344;2023-06-01T06:55:09;16.85;;;11.65;;
12218;SDS011;6172;42.646;23.344;2023-06-01T06:57:36;16.73;;;12.18;;
12218;SDS011;6172;42.646;23.344;2023-06-01T07:00:05;21.05;;;12.35;;
12218;SDS011;6172;42.646;23.344;2023-06-01T07:02:34;18.33;;;12.77;;
12218;SDS011;6172;42.646;23.344;2023-06-01T07:05:03;14.68;;;12.15;;
12218;SDS011;6172;42.646;23.344;2023-06-01T07:07:31;15.45;;;11.00;;
12218;SDS011;6172;42.646;23.344;2023-06-01T07:10:00;16.33;;;11.63;;
12218;SDS011;6172;42.646;23.344;2023-06-01T07:12:27;17.40;;;12.75;;
12218;SDS011;6172;42.646;23.344;2023-06-01T07:14:53;17.77;;;12.30;;
12218;SDS011;6172;42.646;23.344;2023-06-01T07:17:21;16.60;;;11.82;;
12218;SDS011;6172;42.646;23.344;2023-06-01T07:19:47;18.63;;;11.73;;
12218;SDS011;6172;42.646;23.344;2023-06-01T07:22:16;24.50;;;12.73;;
12218;SDS011;6172;42.646;23.344;2023-06-01T07:24:43;14.45;;;11.98;;
12218;SDS011;6172;42.646;23.344;2023-06-01T07:27:10;14.70;;;12.07;;
12218;SDS011;6172;42.646;23.344;2023-06-01T07:29:38;18.33;;;12.88;;
12218;SDS011;6172;42.646;23.344;2023-06-01T07:32:05;15.75;;;12.43;;
12218;SDS011;6172;42.646;23.344;2023-06-01T07:34:32;14.18;;;12.73;;
12218;SDS011;6172;42.646;23.344;2023-06-01T07:37:01;14.70;;;12.93;;
12218;SDS011;6172;42.646;23.344;2023-06-01T07:39:31;16.50;;;13.85;;
12218;SDS011;6172;42.646;23.344;2023-06-01T07:41:58;15.40;;;13.73;;
12218;SDS011;6172;42.646;23.344;2023-06-01T07:44:25;19.45;;;15.90;;
12218;SDS011;6172;42.646;23.344;2023-06-01T07:46:53;17.02;;;15.02;;
12218;SDS011;6172;42.646;23.344;2023-06-01T07:49:19;17.48;;;15.07;;
12218;SDS011;6172;42.646;23.344;2023-06-01T07:51:46;16.65;;;14.38;;
12218;SDS011;6172;42.646;23.344;2023-06-01T07:54:14;21.90;;;16.15;;
12218;SDS011;6172;42.646;23.344;2023-06-01T07:56:43;21.38;;;15.27;;
12218;SDS011;6172;42.646;23.344;2023-06-01T07:59:12;17.92;;;15.65;;
12218;SDS011;6172;42.646;23.344;2023-06-01T08:01:39;18.58;;;15.68;;
12218;SDS011;6172;42.646;23.344;2023-06-01T08:04:06;20.20;;;15.77;;
12218;SDS011;6172;42.646;23.344;2023-06-01T08:06:33;18.13;;;14.02;;
12218;SDS011;6172;42.646;23.344;2023-06-01T08:09:03;16.88;;;14.85;;
12218;SDS011;6172;42.646;23.344;2023-06-01T08:11:30;22.92;;;16.77;;
12218;SDS011;6172;42.646;23.344;2023-06-01T08:13:59;18.40;;;15.55;;
12218;SDS011;6172;42.646;23.344;2023-06-01T08:16:28;19.05;;;14.52;;
12218;SDS011;6172;42.646;23.344;2023-06-01T08:18:55;17.85;;;15.23;;
12218;SDS011;6172;42.646;23.344;2023-06-01T08:21:22;17.23;;;15.43;;
12218;SDS011;6172;42.646;23.344;2023-06-01T08:23:50;17.83;;;13.70;;
12218;SDS011;6172;42.646;23.344;2023-06-01T08:26:17;20.38;;;15.27;;
12218;SDS011;6172;42.646;23.344;2023-06-01T08:28:45;23.88;;;14.70;;
12218;SDS011;6172;42.646;23.344;2023-06-01T08:31:18;18.10;;;14.68;;
12218;SDS011;6172;42.646;23.344;2023-06-01T08:33:47;20.80;;;13.30;;
12218;SDS011;6172;42.646;23.344;2023-06-01T08:36:16;15.93;;;12.82;;
12218;SDS011;6172;42.646;23.344;2023-06-01T08:38:44;19.40;;;11.35;;
12218;SDS011;6172;42.646;23.344;2023-06-01T08:41:14;14.98;;;11.70;;
12218;SDS011;6172;42.646;23.344;2023-06-01T08:43:48;11.82;;;9.88;;
12218;SDS011;6172;42.646;23.344;2023-06-01T08:46:22;12.52;;;8.77;;
12218;SDS011;6172;42.646;23.344;2023-06-01T08:48:52;10.73;;;8.93;;
12218;SDS011;6172;42.646;23.344;2023-06-01T08:51:21;11.30;;;8.02;;
12218;SDS011;6172;42.646;23.344;2023-06-01T08:53:50;9.32;;;6.82;;
12218;SDS011;6172;42.646;23.344;2023-06-01T08:56:19;17.88;;;11.80;;
12218;SDS011;6172;42.646;23.344;2023-06-01T08:58:46;17.40;;;13.77;;
12218;SDS011;6172;42.646;23.344;2023-06-01T09:01:16;17.05;;;13.80;;
12218;SDS011;6172;42.646;23.344;2023-06-01T09:03:47;18.88;;;13.35;;
12218;SDS011;6172;42.646;23.344;2023-06-01T09:06:15;18.98;;;13.43;;
12218;SDS011;6172;42.646;23.344;2023-06-01T09:08:42;15.77;;;12.68;;
12218;SDS011;6172;42.646;23.344;2023-06-01T09:11:11;18.08;;;12.35;;
12218;SDS011;6172;42.646;23.344;2023-06-01T09:13:39;15.30;;;11.48;;
12218;SDS011;6172;42.646;23.344;2023-06-01T09:16:07;12.40;;;10.63;;
12218;SDS011;6172;42.646;23.344;2023-06-01T09:18:34;14.10;;;10.18;;
12218;SDS011;6172;42.646;23.344;2023-06-01T09:21:12;10.43;;;9.15;;
12218;SDS011;6172;42.646;23.344;2023-06-01T09:23:40;11.73;;;9.40;;
12218;SDS011;6172;42.646;23.344;2023-06-01T09:26:08;14.43;;;8.90;;
12218;SDS011;6172;42.646;23.344;2023-06-01T09:31:34;12.15;;;8.60;;
12218;SDS011;6172;42.646;23.344;2023-06-01T09:34:02;12.27;;;7.00;;
12218;SDS011;6172;42.646;23.344;2023-06-01T09:36:31;8.52;;;5.90;;
12218;SDS011;6172;42.646;23.344;2023-06-01T09:39:02;8.98;;;6.10;;
12218;SDS011;6172;42.646;23.344;2023-06-01T09:41:46;8.82;;;6.57;;
12218;SDS011;6172;42.646;23.344;2023-06-01T09:44:22;7.72;;;5.32;;
12218;SDS011;6172;42.646;23.344;2023-06-01T09:46:50;12.07;;;6.13;;
12218;SDS011;6172;42.646;23.344;2023-06-01T09:49:19;9.15;;;5.82;;
12218;SDS011;6172;42.646;23.344;2023-06-01T09:51:49;8.95;;;6.25;;
12218;SDS011;6172;42.646;23.344;2023-06-01T09:54:22;8.90;;;6.25;;
12218;SDS011;6172;42.646;23.344;2023-06-01T09:56:51;5.97;;;5.22;;
12218;SDS011;6172;42.646;23.344;2023-06-01T09:59:19;8.13;;;5.63;;
12218;SDS011;6172;42.646;23.344;2023-06-01T10:01:47;8.63;;;5.40;;
12218;SDS011;6172;42.646;23.344;2023-06-01T10:04:20;8.10;;;6.53;;
12218;SDS011;6172;42.646;23.344;2023-06-01T10:06:51;5.85;;;5.25;;
12218;SDS011;6172;42.646;23.344;2023-06-01T10:09:19;5.03;;;4.05;;
12218;SDS011;6172;42.646;23.344;2023-06-01T10:11:48;7.32;;;4.47;;
12218;SDS011;6172;42.646;23.344;2023-06-01T10:14:18;5.40;;;4.43;;
12218;SDS011;6172;42.646;23.344;2023-06-01T10:16:46;4.15;;;3.75;;
12218;SDS011;6172;42.646;23.344;2023-06-01T10:19:15;6.40;;;3.83;;
12218;SDS011;6172;42.646;23.344;2023-06-01T10:21:43;5.03;;;4.18;;
12218;SDS011;6172;42.646;23.344;2023-06-01T10:24:13;5.50;;;3.70;;
12218;SDS011;6172;42.646;23.344;2023-06-01T10:26:42;5.95;;;4.10;;
12218;SDS011;6172;42.646;23.344;2023-06-01T10:29:15;4.22;;;3.90;;
12218;SDS011;6172;42.646;23.344;2023-06-01T10:31:45;5.15;;;4.30;;
12218;SDS011;6172;42.646;23.344;2023-06-01T10:34:12;4.40;;;3.85;;
12218;SDS011;6172;42.646;23.344;2023-06-01T10:39:39;4.80;;;3.58;;
12218;SDS011;6172;42.646;23.344;2023-06-01T10:45:09;6.30;;;3.70;;
12218;SDS011;6172;42.646;23.344;2023-06-01T10:48:05;4.53;;;4.10;;
12218;SDS011;6172;42.646;23.344;2023-06-01T10:50:35;6.07;;;4.55;;
12218;SDS011;6172;42.646;23.344;2023-06-01T10:59:11;6.15;;;4.57;;
12218;SDS011;6172;42.646;23.344;2023-06-01T11:01:39;7.80;;;4.50;;
12218;SDS011;6172;42.646;23.344;2023-06-01T11:04:07;5.13;;;4.63;;
12218;SDS011;6172;42.646;23.344;2023-06-01T11:06:36;5.22;;;3.67;;
12218;SDS011;6172;42.646;23.344;2023-06-01T11:09:05;9.88;;;5.43;;
12218;SDS011;6172;42.646;23.344;2023-06-01T11:11:56;6.65;;;4.47;;
12218;SDS011;6172;42.646;23.344;2023-06-01T11:14:26;6.47;;;4.40;;
12218;SDS011;6172;42.646;23.344;2023-06-01T11:19:56;4.68;;;4.05;;
12218;SDS011;6172;42.646;23.344;2023-06-01T11:22:24;8.32;;;3.60;;
12218;SDS011;6172;42.646;23.344;2023-06-01T11:25:00;9.95;;;4.10;;
12218;SDS011;6172;42.646;23.344;2023-06-01T11:27:31;4.18;;;3.00;;
12218;SDS011;6172;42.646;23.344;2023-06-01T11:29:59;6.32;;;3.00;;
12218;SDS011;6172;42.646;23.344;2023-06-01T11:32:26;3.88;;;2.97;;
12218;SDS011;6172;42.646;23.344;2023-06-01T11:34:54;6.63;;;3.17;;
12218;SDS011;6172;42.646;23.344;2023-06-01T11:37:21;4.50;;;3.13;;
12218;SDS011;6172;42.646;23.344;2023-06-01T11:39:50;3.08;;;2.72;;
12218;SDS011;6172;42.646;23.344;2023-06-01T11:42:18;7.15;;;2.63;;
12218;SDS011;6172;42.646;23.344;2023-06-01T11:44:56;4.40;;;2.88;;
12218;SDS011;6172;42.646;23.344;2023-06-01T11:47:29;4.63;;;3.00;;
12218;SDS011;6172;42.646;23.344;2023-06-01T11:49:56;5.70;;;3.27;;
12218;SDS011;6172;42.646;23.344;2023-06-01T11:52:23;7.03;;;3.30;;
12218;SDS011;6172;42.646;23.344;2023-06-01T11:54:50;4.10;;;2.77;;
12218;SDS011;6172;42.646;23.344;2023-06-01T11:57:17;2.97;;;2.33;;
12218;SDS011;6172;42.646;23.344;2023-06-01T11:59:45;4.00;;;2.97;;
12218;SDS011;6172;42.646;23.344;2023-06-01T12:02:16;4.87;;;3.30;;
12218;SDS011;6172;42.646;23.344;2023-06-01T12:04:55;3.43;;;2.53;;
12218;SDS011;6172;42.646;23.344;2023-06-01T12:07:23;4.13;;;3.33;;
12218;SDS011;6172;42.646;23.344;2023-06-01T12:09:51;5.07;;;3.90;;
12218;SDS011;6172;42.646;23.344;2023-06-01T12:12:19;6.30;;;3.77;;
12218;SDS011;6172;42.646;23.344;2023-06-01T12:14:47;6.57;;;4.23;;
12218;SDS011;6172;42.646;23.344;2023-06-01T12:17:15;6.73;;;4.50;;
12218;SDS011;6172;42.646;23.344;2023-06-01T12:19:45;7.70;;;4.13;;
12218;SDS011;6172;42.646;23.344;2023-06-01T12:22:14;4.80;;;3.90;;
12218;SDS011;6172;42.646;23.344;2023-06-01T12:24:41;4.17;;;3.50;;
12218;SDS011;6172;42.646;23.344;2023-06-01T12:27:13;7.53;;;3.87;;
12218;SDS011;6172;42.646;23.344;2023-06-01T12:29:41;4.90;;;3.83;;
12218;SDS011;6172;42.646;23.344;2023-06-01T12:32:09;6.00;;;3.50;;
12218;SDS011;6172;42.646;23.344;2023-06-01T12:34:40;8.33;;;4.30;;
12218;SDS011;6172;42.646;23.344;2023-06-01T12:37:13;6.20;;;4.00;;
12218;SDS011;6172;42.646;23.344;2023-06-01T12:39:42;4.63;;;4.13;;
12218;SDS011;6172;42.646;23.344;2023-06-01T12:42:10;4.50;;;3.53;;
12218;SDS011;6172;42.646;23.344;2023-06-01T12:44:37;6.77;;;4.30;;
12218;SDS011;6172;42.646;23.344;2023-06-01T12:47:06;6.27;;;4.07;;
12218;SDS011;6172;42.646;23.344;2023-06-01T12:49:33;8.57;;;5.10;;
12218;SDS011;6172;42.646;23.344;2023-06-01T12:52:02;6.80;;;4.17;;
12218;SDS011;6172;42.646;23.344;2023-06-01T12:54:32;6.20;;;3.93;;
12218;SDS011;6172;42.646;23.344;2023-06-01T12:56:58;4.63;;;3.88;;
12218;SDS011;6172;42.646;23.344;2023-06-01T12:59:27;6.05;;;4.10;;
12218;SDS011;6172;42.646;23.344;2023-06-01T13:01:54;9.57;;;4.27;;
12218;SDS011;6172;42.646;23.344;2023-06-01T13:04:22;8.90;;;5.05;;
12218;SDS011;6172;42.646;23.344;2023-06-01T13:06:53;8.05;;;4.63;;
12218;SDS011;6172;42.646;23.344;2023-06-01T13:09:21;9.20;;;4.75;;
12218;SDS011;6172;42.646;23.344;2023-06-01T13:11:51;5.88;;;3.80;;
12218;SDS011;6172;42.646;23.344;2023-06-01T13:14:18;7.55;;;3.40;;
12218;SDS011;6172;42.646;23.344;2023-06-01T13:16:45;4.72;;;2.10;;
12218;SDS011;6172;42.646;23.344;2023-06-01T13:19:12;5.38;;;2.22;;
12218;SDS011;6172;42.646;23.344;2023-06-01T13:21:39;3.80;;;1.90;;
12218;SDS011;6172;42.646;23.344;2023-06-01T13:24:06;1.42;;;1.30;;
12218;SDS011;6172;42.646;23.344;2023-06-01T13:26:35;5.70;;;1.75;;
12218;SDS011;6172;42.646;23.344;2023-06-01T13:29:04;1.60;;;1.50;;
12218;SDS011;6172;42.646;23.344;2023-06-01T13:31:31;2.00;;;1.50;;
12218;SDS011;6172;42.646;23.344;2023-06-01T13:34:00;2.58;;;1.58;;
12218;SDS011;6172;42.646;23.344;2023-06-01T13:36:28;1.88;;;1.55;;
12218;SDS011;6172;42.646;23.344;2023-06-01T13:38:55;3.60;;;1.52;;
12218;SDS011;6172;42.646;23.344;2023-06-01T13:41:23;2.60;;;1.98;;
12218;SDS011;6172;42.646;23.344;2023-06-01T13:43:50;2.58;;;1.50;;
12218;SDS011;6172;42.646;23.344;2023-06-01T13:46:19;3.20;;;1.73;;
12218;SDS011;6172;42.646;23.344;2023-06-01T13:48:50;2.35;;;1.83;;
12218;SDS011;6172;42.646;23.344;2023-06-01T13:51:17;2.17;;;1.40;;
12218;SDS011;6172;42.646;23.344;2023-06-01T13:53:48;3.90;;;1.50;;
12218;SDS011;6172;42.646;23.344;2023-06-01T13:56:21;1.52;;;1.38;;
12218;SDS011;6172;42.646;23.344;2023-06-01T13:58:49;2.55;;;1.42;;
12218;SDS011;6172;42.646;23.344;2023-06-01T14:01:20;2.55;;;1.60;;
12218;SDS011;6172;42.646;23.344;2023-06-01T14:03:50;2.95;;;1.98;;
12218;SDS011;6172;42.646;23.344;2023-06-01T14:06:21;4.15;;;1.85;;
12218;SDS011;6172;42.646;23.344;2023-06-01T14:08:51;3.08;;;2.25;;
12218;SDS011;6172;42.646;23.344;2023-06-01T14:11:18;3.03;;;2.08;;
12218;SDS011;6172;42.646;23.344;2023-06-01T14:13:45;3.35;;;1.83;;
12218;SDS011;6172;42.646;23.344;2023-06-01T14:16:12;5.20;;;2.65;;
12218;SDS011;6172;42.646;23.344;2023-06-01T14:18:41;5.78;;;2.67;;
12218;SDS011;6172;42.646;23.344;2023-06-01T14:21:08;3.53;;;2.58;;
12218;SDS011;6172;42.646;23.344;2023-06-01T14:23:35;3.58;;;2.70;;
12218;SDS011;6172;42.646;23.344;2023-06-01T14:26:02;2.85;;;2.55;;
12218;SDS011;6172;42.646;23.344;2023-06-01T14:28:29;5.25;;;2.80;;
12218;SDS011;6172;42.646;23.344;2023-06-01T14:30:55;3.65;;;3.08;;
12218;SDS011;6172;42.646;23.344;2023-06-01T14:33:22;5.00;;;2.85;;
12218;SDS011;6172;42.646;23.344;2023-06-01T14:35:51;4.75;;;3.53;;
12218;SDS011;6172;42.646;23.344;2023-06-01T14:38:18;5.63;;;3.38;;
12218;SDS011;6172;42.646;23.344;2023-06-01T14:40:45;7.18;;;3.80;;
12218;SDS011;6172;42.646;23.344;2023-06-01T14:43:12;8.45;;;3.42;;
12218;SDS011;6172;42.646;23.344;2023-06-01T14:45:39;4.50;;;4.00;;
12218;SDS011;6172;42.646;23.344;2023-06-01T14:48:06;6.50;;;3.53;;
12218;SDS011;6172;42.646;23.344;2023-06-01T14:50:32;7.88;;;4.10;;
12218;SDS011;6172;42.646;23.344;2023-06-01T14:53:01;7.80;;;4.63;;
12218;SDS011;6172;42.646;23.344;2023-06-01T14:55:28;5.50;;;4.07;;
12218;SDS011;6172;42.646;23.344;2023-06-01T14:57:55;5.10;;;3.53;;
12218;SDS011;6172;42.646;23.344;2023-06-01T15:00:22;5.23;;;4.13;;
12218;SDS011;6172;42.646;23.344;2023-06-01T15:02:49;4.73;;;3.90;;
12218;SDS011;6172;42.646;23.344;2023-06-01T15:05:16;4.30;;;3.83;;